createdAt,value
2018-05-12T00:00:47.035Z,98899.47
2018-05-12T00:03:15.697Z,98893.38
2018-05-12T00:05:45.139Z,98893.35
2018-05-12T00:08:13.843Z,98902.95
2018-05-12T00:10:43.130Z,98901.33
2018-05-12T00:13:11.696Z,98901.27
2018-05-12T00:15:40.186Z,98899.39
2018-05-12T00:18:08.772Z,98899.78
2018-05-12T00:20:38.069Z,98896.03
2018-05-12T00:23:06.715Z,98900.78
2018-05-12T00:25:35.864Z,98898.88
2018-05-12T00:28:04.518Z,98897.62
2018-05-12T00:30:33.803Z,98896.28
2018-05-12T00:33:02.368Z,98892.42
2018-05-12T00:35:30.994Z,98898.41
2018-05-12T00:37:59.702Z,98901.55
2018-05-12T00:40:28.247Z,98900.04
2018-05-12T00:42:56.997Z,98904.91
2018-05-12T00:45:25.521Z,98905.61
2018-05-12T00:47:54.165Z,98906.53
2018-05-12T00:50:22.873Z,98904.06
2018-05-12T00:52:51.437Z,98908.77
2018-05-12T00:55:20.038Z,98901.94
2018-05-12T00:57:49.250Z,98911.23
2018-05-12T01:00:18.601Z,98904.03
2018-05-12T01:02:49.963Z,98903.61
2018-05-12T01:05:18.651Z,98904.14
2018-05-12T01:07:47.235Z,98912.45
2018-05-12T01:10:16.795Z,98909.02
2018-05-12T01:12:45.312Z,98905.40
2018-05-12T01:15:14.101Z,98913.24
2018-05-12T01:17:42.696Z,98911.84
2018-05-12T01:20:11.468Z,98905.38
2018-05-12T01:22:40.032Z,98907.91
2018-05-12T01:25:08.590Z,98905.67
2018-05-12T01:27:37.996Z,98903.00
2018-05-12T01:30:07.320Z,98897.24
2018-05-12T01:32:36.085Z,98889.65
2018-05-12T01:35:04.754Z,98893.93
2018-05-12T01:37:34.001Z,98904.86
2018-05-12T01:40:02.606Z,98898.42
2018-05-12T01:42:31.303Z,98903.31
2018-05-12T01:45:00.080Z,98902.14
2018-05-12T01:47:28.843Z,98898.47
2018-05-12T01:49:57.658Z,98896.84
2018-05-12T01:52:26.366Z,98898.27
2018-05-12T01:54:55.174Z,98894.98
2018-05-12T01:57:23.972Z,98895.44
2018-05-12T01:59:52.837Z,98898.59
2018-05-12T02:02:22.041Z,98893.23
2018-05-12T02:04:51.764Z,98889.53
2018-05-12T02:07:20.506Z,98889.63
2018-05-12T02:09:50.081Z,98887.86
2018-05-12T02:12:18.799Z,98888.32
2018-05-12T02:14:47.664Z,98882.59
2018-05-12T02:17:17.194Z,98880.37
2018-05-12T02:19:46.499Z,98881.98
2018-05-12T02:22:15.448Z,98888.13
2018-05-12T02:24:44.269Z,98878.80
2018-05-12T02:27:13.488Z,98879.16
2018-05-12T02:29:42.276Z,98882.55
2018-05-12T02:32:11.841Z,98882.08
2018-05-12T02:34:41.049Z,98885.03
2018-05-12T02:37:09.668Z,98882.08
2018-05-12T02:39:38.335Z,98877.52
2018-05-12T02:42:06.936Z,98871.09
2018-05-12T02:44:36.489Z,98877.84
2018-05-12T02:47:05.090Z,98872.78
2018-05-12T02:49:33.812Z,98879.22
2018-05-12T02:52:02.403Z,98883.21
2018-05-12T02:54:30.963Z,98876.97
2018-05-12T02:56:59.604Z,98878.19
2018-05-12T02:59:28.210Z,98879.73
2018-05-12T03:01:56.784Z,98878.23
2018-05-12T03:04:26.463Z,98877.58
2018-05-12T03:06:55.477Z,98873.58
2018-05-12T03:09:24.230Z,98869.83
2018-05-12T03:11:52.838Z,98875.64
2018-05-12T03:14:21.538Z,98873.53
2018-05-12T03:16:50.088Z,98867.48
2018-05-12T03:19:18.667Z,98861.47
2018-05-12T03:21:47.992Z,98872.57
2018-05-12T03:24:17.435Z,98864.80
2018-05-12T03:26:46.072Z,98865.72
2018-05-12T03:29:14.754Z,98865.95
2018-05-12T03:31:43.300Z,98860.37
2018-05-12T03:34:11.969Z,98869.64
2018-05-12T03:36:40.608Z,98867.34
2018-05-12T03:39:09.907Z,98872.82
2018-05-12T03:41:38.980Z,98870.05
2018-05-12T03:44:08.381Z,98874.77
2018-05-12T03:46:37.046Z,98878.57
2018-05-12T03:49:05.610Z,98880.17
2018-05-12T03:51:35.106Z,98870.78
2018-05-12T03:54:03.850Z,98874.06
2018-05-12T03:56:33.166Z,98877.86
2018-05-12T03:59:01.757Z,98879.41
2018-05-12T04:01:30.381Z,98882.89
2018-05-12T04:03:59.844Z,98888.19
2018-05-12T04:06:46.057Z,98893.15
2018-05-12T04:09:32.478Z,98894.20
2018-05-12T04:12:18.794Z,98898.45
2018-05-12T04:14:47.472Z,98903.84
2018-05-12T04:17:16.027Z,98904.03
2018-05-12T04:19:45.358Z,98903.89
2018-05-12T04:22:14.042Z,98907.41
2018-05-12T04:24:42.633Z,98905.98
2018-05-12T04:27:11.244Z,98898.45
2018-05-12T04:29:40.319Z,98908.73
2018-05-12T04:32:09.896Z,98908.02
2018-05-12T04:34:39.279Z,98910.98
2018-05-12T04:37:07.866Z,98909.32
2018-05-12T04:39:36.472Z,98905.48
2018-05-12T04:42:05.171Z,98908.77
2018-05-12T04:44:33.777Z,98914.44
2018-05-12T04:47:02.299Z,98914.86
2018-05-12T04:49:30.969Z,98911.70
2018-05-12T04:52:00.398Z,98918.58
2018-05-12T04:54:29.060Z,98921.66
2018-05-12T04:56:58.876Z,98924.31
2018-05-12T04:59:27.458Z,98919.16
2018-05-12T05:01:56.867Z,98921.67
2018-05-12T05:04:25.793Z,98925.02
2018-05-12T05:06:54.727Z,98922.09
2018-05-12T05:09:23.332Z,98926.69
2018-05-12T05:11:53.593Z,98931.95
2018-05-12T05:14:22.215Z,98935.98
2018-05-12T05:16:50.878Z,98924.55
2018-05-12T05:19:19.530Z,98928.07
2018-05-12T05:21:48.339Z,98925.34
2018-05-12T05:24:17.089Z,98919.10
2018-05-12T05:26:45.695Z,98926.91
2018-05-12T05:29:14.363Z,98927.00
2018-05-12T05:31:42.983Z,98929.61
2018-05-12T05:34:11.639Z,98925.30
2018-05-12T05:36:41.782Z,98925.23
2018-05-12T05:39:10.751Z,98922.28
2018-05-12T05:41:40.385Z,98933.21
2018-05-12T05:44:08.953Z,98930.47
2018-05-12T05:46:37.674Z,98920.73
2018-05-12T05:49:06.349Z,98923.10
2018-05-12T05:51:34.957Z,98921.89
2018-05-12T05:54:03.584Z,98920.24
2018-05-12T05:56:32.293Z,98918.56
2018-05-12T05:59:00.952Z,98922.42
2018-05-12T06:01:29.695Z,98926.77
2018-05-12T06:03:58.340Z,98920.95
2018-05-12T06:06:27.716Z,98925.31
2018-05-12T06:08:59.382Z,98931.27
2018-05-12T06:11:28.219Z,98926.80
2018-05-12T06:13:56.755Z,98926.87
2018-05-12T06:16:26.174Z,98926.48
2018-05-12T06:18:55.590Z,98922.47
2018-05-12T06:21:25.007Z,98923.08
2018-05-12T06:23:53.656Z,98921.05
2018-05-12T06:26:22.546Z,98920.95
2018-05-12T06:28:51.270Z,98929.70
2018-05-12T06:31:19.964Z,98933.37
2018-05-12T06:33:49.878Z,98932.08
2018-05-12T06:36:18.521Z,98936.91
2018-05-12T06:38:48.472Z,98940.22
2018-05-12T06:41:17.540Z,98935.75
2018-05-12T06:43:47.109Z,98933.63
2018-05-12T06:46:15.730Z,98929.63
2018-05-12T06:48:44.276Z,98933.84
2018-05-12T06:51:12.925Z,98934.30
2018-05-12T06:53:41.456Z,98931.93
2018-05-12T06:56:10.183Z,98929.47
2018-05-12T06:58:38.911Z,98924.47
2018-05-12T07:01:08.267Z,98925.73
2018-05-12T07:03:36.950Z,98926.31
2018-05-12T07:06:06.511Z,98923.47
2018-05-12T07:08:36.727Z,98927.25
2018-05-12T07:11:06.095Z,98920.98
2018-05-12T07:13:37.908Z,98924.95
2018-05-12T07:16:07.431Z,98920.81
2018-05-12T07:18:39.667Z,98918.08
2018-05-12T07:21:09.195Z,98921.91
2018-05-12T07:23:38.505Z,98918.87
2018-05-12T07:26:08.376Z,98922.59
2018-05-12T07:28:37.277Z,98918.17
2018-05-12T07:31:06.061Z,98921.09
2018-05-12T07:33:34.761Z,98918.59
2018-05-12T07:36:03.697Z,98923.50
2018-05-12T07:38:32.907Z,98924.41
2018-05-12T07:41:02.719Z,98920.44
2018-05-12T07:43:32.171Z,98917.03
2018-05-12T07:46:01.493Z,98917.92
2018-05-12T07:48:30.769Z,98917.34
2018-05-12T07:50:59.418Z,98923.30
2018-05-12T07:53:28.726Z,98917.03
2018-05-12T07:55:57.419Z,98915.52
2018-05-12T07:58:26.837Z,98916.58
2018-05-12T08:00:55.428Z,98919.10
2018-05-12T08:03:24.919Z,98917.27
2018-05-12T08:05:53.500Z,98919.73
2018-05-12T08:08:22.102Z,98917.66
2018-05-12T08:10:51.103Z,98922.27
2018-05-12T08:13:20.497Z,98917.94
2018-05-12T08:15:50.668Z,98918.19
2018-05-12T08:18:19.365Z,98915.93
2018-05-12T08:20:48.049Z,98919.95
2018-05-12T08:23:17.378Z,98918.47
2018-05-12T08:25:46.821Z,98916.84
2018-05-12T08:28:15.649Z,98917.67
2018-05-12T08:30:44.464Z,98926.22
2018-05-12T08:33:13.136Z,98915.08
2018-05-12T08:35:41.793Z,98915.66
2018-05-12T08:38:10.438Z,98919.97
2018-05-12T08:40:39.844Z,98917.34
2018-05-12T08:43:08.782Z,98915.22
2018-05-12T08:45:39.275Z,98921.16
2018-05-12T08:48:08.083Z,98914.80
2018-05-12T08:50:39.253Z,98913.45
2018-05-12T08:53:07.879Z,98911.03
2018-05-12T08:55:36.503Z,98907.59
2018-05-12T08:58:05.322Z,98909.98
2018-05-12T09:00:34.218Z,98903.96
2018-05-12T09:03:03.242Z,98905.97
2018-05-12T09:05:31.974Z,98910.13
2018-05-12T09:08:02.095Z,98901.97
2018-05-12T09:10:32.269Z,98914.52
2018-05-12T09:13:03.611Z,98909.14
2018-05-12T09:15:34.844Z,98908.19
2018-05-12T09:18:06.332Z,98902.95
2018-05-12T09:20:35.204Z,98901.31
2018-05-12T09:23:03.890Z,98892.70
2018-05-12T09:25:34.751Z,98898.45
2018-05-12T09:28:04.099Z,98897.83
2018-05-12T09:30:32.851Z,98892.16
2018-05-12T09:33:02.276Z,98891.97
2018-05-12T09:35:31.624Z,98887.27
2018-05-12T09:38:00.333Z,98888.50
2018-05-12T09:40:29.245Z,98885.32
2018-05-12T09:42:58.536Z,98890.94
2018-05-12T09:45:28.624Z,98891.50
2018-05-12T09:47:57.202Z,98891.05
2018-05-12T09:50:26.544Z,98885.31
2018-05-12T09:52:55.248Z,98876.93
2018-05-12T09:55:25.424Z,98875.39
2018-05-12T09:57:54.204Z,98875.58
2018-05-12T10:00:25.975Z,98875.64
2018-05-12T10:02:54.782Z,98868.50
2018-05-12T10:05:23.368Z,98871.77
2018-05-12T10:07:52.680Z,98861.95
2018-05-12T10:10:22.958Z,98860.17
2018-05-12T10:12:52.947Z,98861.70
2018-05-12T10:15:22.060Z,98858.02
2018-05-12T10:17:52.579Z,98853.06
2018-05-12T10:20:21.346Z,98846.22
2018-05-12T10:22:50.206Z,98839.69
2018-05-12T10:25:18.848Z,98839.12
2018-05-12T10:27:48.978Z,98842.83
2018-05-12T10:30:18.421Z,98839.92
2018-05-12T10:32:46.968Z,98833.47
2018-05-12T10:35:15.639Z,98834.37
2018-05-12T10:37:44.322Z,98831.11
2018-05-12T10:40:14.017Z,98827.72
2018-05-12T10:42:43.542Z,98828.52
2018-05-12T10:45:12.843Z,98826.14
2018-05-12T10:47:42.800Z,98823.00
2018-05-12T10:50:13.368Z,98817.53
2018-05-12T10:52:42.816Z,98817.37
2018-05-12T10:55:12.356Z,98812.39
2018-05-12T10:57:42.799Z,98809.91
2018-05-12T11:00:12.062Z,98805.34
2018-05-12T11:02:43.436Z,98805.03
2018-05-12T11:05:12.145Z,98794.44
2018-05-12T11:07:43.560Z,98800.78
2018-05-12T11:10:13.394Z,98795.48
2018-05-12T11:12:42.784Z,98789.26
2018-05-12T11:15:13.328Z,98787.00
2018-05-12T11:17:42.841Z,98784.73
2018-05-12T11:20:13.020Z,98778.48
2018-05-12T11:22:42.658Z,98773.17
2018-05-12T11:25:11.607Z,98768.70
2018-05-12T11:27:43.441Z,98767.37
2018-05-12T11:30:13.635Z,98766.72
2018-05-12T11:32:42.943Z,98757.77
2018-05-12T11:35:13.259Z,98753.86
2018-05-12T11:37:41.988Z,98746.94
2018-05-12T11:40:10.608Z,98743.65
2018-05-12T11:42:39.422Z,98743.09
2018-05-12T11:45:08.147Z,98733.05
2018-05-12T11:47:37.268Z,98728.92
2018-05-12T11:50:07.367Z,98726.84
2018-05-12T11:52:36.256Z,98719.99
2018-05-12T11:55:05.012Z,98714.48
2018-05-12T11:57:34.741Z,98707.15
2018-05-12T12:00:04.460Z,98711.31
2018-05-12T12:02:38.116Z,98704.39
2018-05-12T12:05:07.585Z,98697.05
2018-05-12T12:07:39.623Z,98700.58
2018-05-12T12:10:11.069Z,98701.84
2018-05-12T12:12:41.038Z,98692.72
2018-05-12T12:15:14.293Z,98692.00
2018-05-12T12:17:43.060Z,98693.09
2018-05-12T12:20:13.175Z,98690.23
2018-05-12T12:22:44.362Z,98682.18
2018-05-12T12:25:16.136Z,98687.30
2018-05-12T12:27:47.458Z,98682.05
2018-05-12T12:30:16.771Z,98683.00
2018-05-12T12:32:46.599Z,98680.52
2018-05-12T12:35:16.043Z,98675.58
2018-05-12T12:37:44.754Z,98676.37
2018-05-12T12:40:13.419Z,98667.79
2018-05-12T12:42:42.111Z,98668.92
2018-05-12T12:45:11.722Z,98672.36
2018-05-12T12:47:42.644Z,98671.92
2018-05-12T12:50:19.843Z,98655.91
2018-05-12T12:52:50.222Z,98660.43
2018-05-12T12:55:32.419Z,98662.16
2018-05-12T12:58:02.300Z,98657.61
2018-05-12T13:00:37.662Z,98658.59
2018-05-12T13:03:17.348Z,98654.78
2018-05-12T13:05:50.204Z,98653.27
2018-05-12T13:08:19.049Z,98644.27
2018-05-12T13:10:48.369Z,98641.08
2018-05-12T13:13:18.144Z,98631.58
2018-05-12T13:15:48.106Z,98625.38
2018-05-12T13:18:18.264Z,98627.63
2018-05-12T13:20:50.889Z,98627.27
2018-05-12T13:23:21.872Z,98621.35
2018-05-12T13:25:50.627Z,98621.58
2018-05-12T13:28:19.332Z,98614.66
2018-05-12T13:30:49.290Z,98616.55
2018-05-12T13:33:18.327Z,98610.16
2018-05-12T13:35:48.450Z,98607.12
2018-05-12T13:38:17.396Z,98603.19
2018-05-12T13:40:46.155Z,98598.00
2018-05-12T13:43:14.916Z,98600.02
2018-05-12T13:45:45.490Z,98603.86
2018-05-12T13:48:14.200Z,98600.09
2018-05-12T13:50:43.030Z,98611.80
2018-05-12T13:53:11.635Z,98611.70
2018-05-12T13:55:40.252Z,98608.23
2018-05-12T13:58:09.293Z,98605.49
2018-05-12T14:00:39.885Z,98601.00
2018-05-12T14:03:08.512Z,98587.59
2018-05-12T14:05:37.305Z,98594.56
2018-05-12T14:08:07.986Z,98598.66
2018-05-12T14:10:38.742Z,98601.84
2018-05-12T14:13:08.580Z,98604.17
2018-05-12T14:15:37.556Z,98602.16
2018-05-12T14:18:06.164Z,98596.28
2018-05-12T14:20:35.415Z,98590.45
2018-05-12T14:23:04.084Z,98577.48
2018-05-12T14:25:32.865Z,98576.30
2018-05-12T14:28:01.559Z,98580.66
2018-05-12T14:30:30.301Z,98583.72
2018-05-12T14:32:59.973Z,98586.72
2018-05-12T14:35:29.284Z,98581.59
2018-05-12T14:37:58.597Z,98572.79
2018-05-12T14:40:28.028Z,98574.66
2018-05-12T14:42:56.761Z,98577.70
2018-05-12T14:45:25.501Z,98578.72
2018-05-12T14:47:54.147Z,98582.92
2018-05-12T14:50:22.804Z,98582.44
2018-05-12T14:52:51.559Z,98574.75
2018-05-12T14:55:20.979Z,98569.05
2018-05-12T14:57:50.414Z,98570.25
2018-05-12T15:00:19.204Z,98573.31
2018-05-12T15:02:47.908Z,98568.08
2018-05-12T15:05:17.138Z,98565.74
2018-05-12T15:07:47.191Z,98571.56
2018-05-12T15:10:16.492Z,98575.98
2018-05-12T15:12:46.769Z,98577.50
2018-05-12T15:15:15.465Z,98586.38
2018-05-12T15:17:44.289Z,98579.84
2018-05-12T15:20:13.073Z,98586.67
2018-05-12T15:22:41.835Z,98574.87
2018-05-12T15:25:10.732Z,98575.01
2018-05-12T15:27:39.382Z,98572.38
2018-05-12T15:30:08.747Z,98576.00
2018-05-12T15:32:37.715Z,98576.61
2018-05-12T15:35:06.443Z,98577.73
2018-05-12T15:37:35.122Z,98576.86
2018-05-12T15:40:05.588Z,98583.33
2018-05-12T15:42:36.227Z,98582.74
2018-05-12T15:45:06.046Z,98577.41
2018-05-12T15:47:35.235Z,98589.87
2018-05-12T15:50:04.333Z,98591.97
2018-05-12T15:52:33.289Z,98582.97
2018-05-12T15:55:02.022Z,98582.36
2018-05-12T15:57:32.667Z,98579.36
2018-05-12T16:00:01.262Z,98580.83
2018-05-12T16:02:30.090Z,98575.26
2018-05-12T16:04:58.774Z,98581.98
2018-05-12T16:07:28.201Z,98581.54
2018-05-12T16:09:57.359Z,98587.89
2018-05-12T16:12:26.860Z,98575.64
2018-05-12T16:14:56.378Z,98577.17
2018-05-12T16:17:25.833Z,98583.13
2018-05-12T16:19:54.623Z,98591.63
2018-05-12T16:22:23.544Z,98595.79
2018-05-12T16:24:52.551Z,98603.75
2018-05-12T16:27:21.536Z,98615.18
2018-05-12T16:29:50.210Z,98619.91
2018-05-12T16:32:18.875Z,98625.27
2018-05-12T16:34:48.243Z,98626.77
2018-05-12T16:37:17.000Z,98627.22
2018-05-12T16:39:46.793Z,98632.64
2018-05-12T16:42:15.970Z,98632.81
2018-05-12T16:44:45.196Z,98641.84
2018-05-12T16:47:13.911Z,98646.55
2018-05-12T16:49:42.603Z,98658.81
2018-05-12T16:52:11.237Z,98652.33
2018-05-12T16:54:39.954Z,98651.98
2018-05-12T16:57:08.565Z,98653.13
2018-05-12T16:59:37.205Z,98655.12
2018-05-12T17:02:05.797Z,98659.05
2018-05-12T17:04:34.421Z,98662.77
2018-05-12T17:07:03.954Z,98670.69
2018-05-12T17:09:33.331Z,98667.28
2018-05-12T17:12:02.588Z,98672.66
2018-05-12T17:14:32.734Z,98674.81
2018-05-12T17:17:02.802Z,98671.27
2018-05-12T17:19:32.066Z,98671.73
2018-05-12T17:22:00.763Z,98662.10
2018-05-12T17:24:29.416Z,98656.94
2018-05-12T17:26:59.149Z,98653.92
2018-05-12T17:29:28.710Z,98653.48
2018-05-12T17:31:57.318Z,98646.05
2018-05-12T17:34:25.920Z,98646.91
2018-05-12T17:36:54.706Z,98642.03
2018-05-12T17:39:24.727Z,98643.30
2018-05-12T17:41:57.829Z,98653.61
2018-05-12T17:44:27.312Z,98659.13
2018-05-12T17:46:55.996Z,98659.50
2018-05-12T17:49:24.718Z,98651.44
2018-05-12T17:51:53.522Z,98640.78
2018-05-12T17:54:22.681Z,98637.34
2018-05-12T17:56:51.548Z,98641.20
2018-05-12T17:59:20.326Z,98649.16
2018-05-12T18:01:49.130Z,98654.93
2018-05-12T18:04:18.715Z,98661.90
2018-05-12T18:06:48.072Z,98658.91
2018-05-12T18:09:16.745Z,98655.69
2018-05-12T18:11:46.738Z,98650.59
2018-05-12T18:14:15.903Z,98642.93
2018-05-12T18:16:44.851Z,98642.22
2018-05-12T18:19:14.262Z,98642.67
2018-05-12T18:21:43.588Z,98644.86
2018-05-12T18:24:12.275Z,98653.43
2018-05-12T18:26:41.063Z,98653.95
2018-05-12T18:29:09.810Z,98650.40
2018-05-12T18:31:38.896Z,98647.41
2018-05-12T18:34:07.606Z,98660.13
2018-05-12T18:36:36.381Z,98668.08
2018-05-12T18:39:05.535Z,98672.01
2018-05-12T18:41:34.715Z,98674.81
2018-05-12T18:44:03.979Z,98674.59
2018-05-12T18:46:33.924Z,98677.58
2018-05-12T18:49:02.917Z,98673.84
2018-05-12T18:51:32.599Z,98677.29
2018-05-12T18:54:02.241Z,98692.95
2018-05-12T18:56:32.155Z,98686.34
2018-05-12T18:59:01.846Z,98682.19
2018-05-12T19:01:30.839Z,98685.25
2018-05-12T19:03:59.672Z,98681.84
2018-05-12T19:06:30.767Z,98682.06
2018-05-12T19:08:59.640Z,98682.29
2018-05-12T19:11:32.443Z,98695.49
2018-05-12T19:14:01.532Z,98697.04
2018-05-12T19:16:33.228Z,98694.04
2018-05-12T19:19:02.180Z,98695.30
2018-05-12T19:21:32.288Z,98696.39
2018-05-12T19:24:00.906Z,98698.42
2018-05-12T19:26:31.087Z,98696.94
2018-05-12T19:29:01.020Z,98701.93
2018-05-12T19:31:31.574Z,98700.20
2018-05-12T19:34:01.308Z,98691.34
2018-05-12T19:36:31.673Z,98685.22
2018-05-12T19:39:01.033Z,98689.50
2018-05-12T19:41:30.796Z,98676.94
2018-05-12T19:44:00.984Z,98672.66
2018-05-12T19:46:29.888Z,98672.91
2018-05-12T19:48:58.763Z,98665.03
2018-05-12T19:51:28.803Z,98674.81
2018-05-12T19:53:58.355Z,98675.64
2018-05-12T19:56:28.966Z,98673.31
2018-05-12T19:59:00.388Z,98673.53
2018-05-12T20:01:30.177Z,98675.23
2018-05-12T20:03:59.931Z,98659.55
2018-05-12T20:06:28.830Z,98663.33
2018-05-12T20:08:58.253Z,98662.91
2018-05-12T20:11:27.779Z,98670.09
2018-05-12T20:13:56.568Z,98670.36
2018-05-12T20:16:25.325Z,98662.16
2018-05-12T20:18:54.576Z,98660.09
2018-05-12T20:21:23.370Z,98652.51
2018-05-12T20:23:52.167Z,98653.78
2018-05-12T20:26:21.077Z,98655.94
2018-05-12T20:28:52.454Z,98663.76
2018-05-12T20:31:22.128Z,98666.07
2018-05-12T20:33:51.191Z,98667.61
2018-05-12T20:36:19.932Z,98658.92
2018-05-12T20:38:48.560Z,98660.11
2018-05-12T20:41:17.264Z,98661.42
2018-05-12T20:43:46.780Z,98654.34
2018-05-12T20:46:15.769Z,98651.68
2018-05-12T20:48:44.456Z,98656.73
2018-05-12T20:51:13.119Z,98661.43
2018-05-12T20:53:41.925Z,98656.64
2018-05-12T20:56:10.618Z,98661.44
2018-05-12T20:58:39.416Z,98668.02
2018-05-12T21:01:08.522Z,98670.88
2018-05-12T21:03:38.579Z,98667.05
2018-05-12T21:06:07.406Z,98673.20
2018-05-12T21:08:36.859Z,98672.67
2018-05-12T21:11:06.618Z,98683.02
2018-05-12T21:13:35.368Z,98675.04
2018-05-12T21:16:04.118Z,98671.42
2018-05-12T21:18:33.337Z,98669.02
2018-05-12T21:21:02.445Z,98667.01
2018-05-12T21:23:31.164Z,98674.65
2018-05-12T21:25:59.870Z,98678.01
2018-05-12T21:28:28.593Z,98673.58
2018-05-12T21:30:57.423Z,98679.53
2018-05-12T21:33:27.401Z,98669.09
2018-05-12T21:35:57.453Z,98671.81
2018-05-12T21:38:26.810Z,98672.45
2018-05-12T21:40:55.595Z,98673.76
2018-05-12T21:43:24.858Z,98673.07
2018-05-12T21:45:55.762Z,98677.44
2018-05-12T21:48:24.512Z,98674.95
2018-05-12T21:50:53.184Z,98674.95
2018-05-12T21:53:22.099Z,98680.41
2018-05-12T21:55:50.688Z,98678.41
2018-05-12T21:58:19.333Z,98680.70
2018-05-12T22:00:48.869Z,98679.85
2018-05-12T22:03:18.283Z,98684.82
2018-05-12T22:05:47.197Z,98679.39
2018-05-12T22:08:15.979Z,98678.36
2018-05-12T22:10:44.675Z,98681.06
2018-05-12T22:13:14.129Z,98685.41
2018-05-12T22:15:44.002Z,98687.70
2018-05-12T22:18:12.805Z,98688.41
2018-05-12T22:20:43.099Z,98683.69
2018-05-12T22:23:11.902Z,98691.71
2018-05-12T22:25:40.642Z,98690.42
2018-05-12T22:28:09.406Z,98700.34
2018-05-12T22:30:38.905Z,98701.41
2018-05-12T22:33:08.718Z,98701.73
2018-05-12T22:35:38.038Z,98703.41
2018-05-12T22:38:06.955Z,98701.47
2018-05-12T22:40:35.550Z,98707.22
2018-05-12T22:43:04.190Z,98698.30
2018-05-12T22:45:33.689Z,98700.00
2018-05-12T22:48:02.610Z,98696.14
2018-05-12T22:50:31.195Z,98695.98
2018-05-12T22:53:00.109Z,98691.20
2018-05-12T22:55:28.653Z,98695.03
2018-05-12T22:57:58.736Z,98695.13
2018-05-12T23:00:34.362Z,98687.86
2018-05-12T23:03:03.160Z,98687.11
2018-05-12T23:05:32.254Z,98686.15
2018-05-12T23:08:00.845Z,98687.55
2018-05-12T23:10:29.411Z,98681.45
2018-05-12T23:12:58.738Z,98683.25
2018-05-12T23:15:28.268Z,98681.63
2018-05-12T23:17:57.587Z,98689.89
2018-05-12T23:20:26.958Z,98689.59
2018-05-12T23:22:55.599Z,98690.34
2018-05-12T23:25:24.248Z,98691.48
2018-05-12T23:27:52.862Z,98685.38
2018-05-12T23:30:21.821Z,98694.38
2018-05-12T23:32:51.178Z,98685.64
2018-05-12T23:35:20.253Z,98677.95
2018-05-12T23:37:48.839Z,98675.88
2018-05-12T23:40:18.209Z,98669.03
2018-05-12T23:42:47.621Z,98669.66
2018-05-12T23:45:16.246Z,98667.45
2018-05-12T23:47:45.732Z,98671.75
2018-05-12T23:50:14.279Z,98672.02
2018-05-12T23:52:42.895Z,98664.33
2018-05-12T23:55:11.702Z,98668.42
2018-05-12T23:57:40.196Z,98671.20
